logo
Rechercher aéroport 
image banner adimage banner adimage banner ad
image banner ad

MZAM - H.E Alfredo Martinez (Tower Hill) Airstrip

Situé à , Belize

ICAO - , IATA -

Données fournies par Airmate  

Information générale

Coordonnées: N18°2'49" W88°35'2"
Élévation : 69 feet MSL.
 
Voir autres Aéroports à Orange Walk District

Données opérationnelles

Special qualification required
Heure actuelle UTC:
Heure actuelle locale:
TAF: TAF MMCM 171659Z 1718/1818 12020KT 4SM HZ SCT020 BKN100 FM180300 12010KT 4SM HZ SCT015 BKN100 TEMPO 1811/1814 2SM HZ BKN010 FM181800 13015KT 6SM HZ SCT020
Voir NOTAMs / SUP AIP / TFR affectant cet aéroport [VIEW]
Fréquences de communication: [VIEW]

Pistes:

Identifiant RWYQFULongueur (ft)Largeur (ft)SurfaceLDA (ft)
10198239UNK
28198239UNK

Coordonnées de l'aéroport

Adresse: Belize

Vue satellite de MZAM